createdAt,value
2022-11-01T00:00:02.665Z,13.49
2022-11-01T00:02:15.370Z,12.76
2022-11-01T00:04:18.574Z,13.12
2022-11-01T00:06:21.405Z,13.46
2022-11-01T00:08:24.156Z,13.45
2022-11-01T00:10:26.893Z,10.19
2022-11-01T00:12:31.835Z,10.39
2022-11-01T00:14:34.592Z,6.13
2022-11-01T00:16:38.667Z,13.28
2022-11-01T00:18:41.909Z,11.40
2022-11-01T00:20:45.019Z,13.17
2022-11-01T00:22:47.700Z,11.88
2022-11-01T00:24:52.138Z,6.76
2022-11-01T00:26:56.773Z,13.25
2022-11-01T00:28:59.530Z,13.26
2022-11-01T00:31:02.500Z,2.92
2022-11-01T00:33:07.388Z,13.29
2022-11-01T00:35:10.544Z,13.23
2022-11-01T00:37:13.230Z,13.27
2022-11-01T00:39:16.762Z,11.76
2022-11-01T00:41:20.670Z,10.18
2022-11-01T00:43:23.927Z,13.31
2022-11-01T00:45:26.635Z,13.32
2022-11-01T00:47:29.362Z,11.53
2022-11-01T00:49:33.375Z,13.27
2022-11-01T00:51:36.048Z,13.28
2022-11-01T00:53:38.941Z,13.26
2022-11-01T00:55:41.960Z,10.85
2022-11-01T00:57:45.658Z,12.82
2022-11-01T00:59:48.403Z,12.91
2022-11-01T01:01:51.390Z,12.88
2022-11-01T01:03:54.225Z,7.75
2022-11-01T01:05:59.193Z,13.09
2022-11-01T01:08:02.269Z,13.13
2022-11-01T01:10:05.968Z,11.89
2022-11-01T01:12:09.294Z,13.10
2022-11-01T01:14:12.424Z,13.17
2022-11-01T01:16:15.119Z,12.37
2022-11-01T01:18:17.844Z,8.57
2022-11-01T01:20:21.024Z,13.28
2022-11-01T01:22:25.134Z,12.66
2022-11-01T01:24:28.009Z,13.32
2022-11-01T01:26:30.725Z,10.20
2022-11-01T01:28:33.411Z,13.13
2022-11-01T01:30:36.108Z,10.00
2022-11-01T01:32:39.001Z,13.55
2022-11-01T01:34:41.732Z,13.62
2022-11-01T01:36:44.859Z,13.61
2022-11-01T01:38:48.948Z,12.49
2022-11-01T01:40:51.632Z,13.61
2022-11-01T01:42:54.296Z,13.64
2022-11-01T01:45:22.970Z,13.68
2022-11-01T01:47:28.552Z,13.67
2022-11-01T01:49:31.312Z,13.68
2022-11-01T01:51:34.266Z,13.63
2022-11-01T01:53:41.767Z,13.63
2022-11-01T01:55:50.222Z,13.66
2022-11-01T01:57:54.335Z,13.59
2022-11-01T01:59:57.083Z,13.64
2022-11-01T02:02:00.333Z,12.75
2022-11-01T02:04:04.584Z,13.19
2022-11-01T02:06:11.177Z,12.84
2022-11-01T02:08:16.195Z,13.46
2022-11-01T02:10:19.527Z,13.38
2022-11-01T02:12:27.267Z,13.29
2022-11-01T02:14:30.890Z,13.47
2022-11-01T02:16:45.097Z,12.77
2022-11-01T02:18:54.138Z,13.83
2022-11-01T02:21:25.509Z,13.95
2022-11-01T02:24:08.186Z,13.14
2022-11-01T02:26:35.247Z,10.53
2022-11-01T02:28:55.377Z,11.65
2022-11-01T02:31:11.882Z,14.14
2022-11-01T02:33:27.446Z,13.68
2022-11-01T02:35:41.361Z,14.20
2022-11-01T02:37:52.272Z,10.71
2022-11-01T02:40:01.953Z,13.68
2022-11-01T02:42:11.668Z,14.50
2022-11-01T02:44:20.044Z,14.51
2022-11-01T02:46:41.758Z,14.52
2022-11-01T02:48:47.100Z,14.57
2022-11-01T02:50:54.211Z,14.58
2022-11-01T02:52:57.217Z,13.00
2022-11-01T02:55:01.828Z,14.62
2022-11-01T02:57:11.172Z,14.63
2022-11-01T02:59:24.791Z,14.63
2022-11-01T03:01:29.852Z,14.63
2022-11-01T03:03:36.342Z,14.62
2022-11-01T03:05:50.999Z,14.67
2022-11-01T03:07:58.162Z,14.68
2022-11-01T03:10:01.775Z,14.66
2022-11-01T03:12:07.784Z,14.64
2022-11-01T03:14:24.953Z,14.52
2022-11-01T03:16:32.314Z,12.53
2022-11-01T03:18:37.551Z,13.82
2022-11-01T03:20:49.497Z,13.76
2022-11-01T03:22:56.431Z,14.38
2022-11-01T03:25:27.437Z,14.37
2022-11-01T03:27:37.428Z,14.37
2022-11-01T03:29:43.181Z,13.99
2022-11-01T03:31:47.569Z,14.41
2022-11-01T03:33:54.096Z,14.37
2022-11-01T03:36:04.250Z,14.38
2022-11-01T03:38:14.797Z,14.41
2022-11-01T03:40:19.817Z,14.11
2022-11-01T03:42:24.958Z,14.45
2022-11-01T03:44:31.723Z,14.45
2022-11-01T03:46:34.616Z,14.46
2022-11-01T03:48:39.941Z,14.50
2022-11-01T03:50:48.868Z,14.52
2022-11-01T03:52:53.254Z,14.51
2022-11-01T03:54:56.562Z,12.57
2022-11-01T03:56:59.237Z,14.54
2022-11-01T03:59:01.999Z,14.57
2022-11-01T04:01:04.720Z,14.55
2022-11-01T04:03:08.450Z,14.56
2022-11-01T04:05:11.486Z,14.58
2022-11-01T04:07:14.146Z,14.56
2022-11-01T04:09:18.132Z,14.51
2022-11-01T04:11:20.921Z,14.45
2022-11-01T04:13:23.627Z,12.74
2022-11-01T04:15:45.285Z,14.56
2022-11-01T04:18:05.709Z,14.64
2022-11-01T04:20:28.509Z,14.72
2022-11-01T04:22:31.147Z,14.56
2022-11-01T04:24:35.413Z,14.70
2022-11-01T04:26:38.104Z,14.70
2022-11-01T04:28:40.946Z,14.71
2022-11-01T04:30:44.109Z,13.83
2022-11-01T04:32:46.732Z,14.89
2022-11-01T04:34:49.671Z,14.83
2022-11-01T04:36:52.410Z,11.77
2022-11-01T04:38:57.458Z,14.84
2022-11-01T04:41:01.454Z,15.04
2022-11-01T04:43:04.552Z,15.14
2022-11-01T04:45:09.652Z,15.10
2022-11-01T04:47:12.404Z,14.92
2022-11-01T04:49:15.183Z,15.10
2022-11-01T04:51:18.162Z,15.07
2022-11-01T04:53:20.843Z,15.07
2022-11-01T04:55:23.705Z,13.39
2022-11-01T04:57:27.755Z,15.21
2022-11-01T04:59:30.553Z,13.87
2022-11-01T05:01:33.294Z,15.04
2022-11-01T05:03:36.569Z,14.89
2022-11-01T05:05:39.513Z,12.88
2022-11-01T05:07:42.236Z,14.76
2022-11-01T05:09:45.112Z,14.77
2022-11-01T05:11:47.826Z,14.78
2022-11-01T05:13:52.251Z,14.77
2022-11-01T05:16:17.936Z,14.50
2022-11-01T05:18:17.691Z,14.67
2022-11-01T05:20:20.808Z,12.02
2022-11-01T05:22:23.502Z,14.91
2022-11-01T05:24:26.220Z,14.48
2022-11-01T05:26:28.945Z,14.93
2022-11-01T05:28:31.587Z,14.92
2022-11-01T05:30:36.933Z,14.82
2022-11-01T05:32:39.583Z,14.60
2022-11-01T05:34:42.331Z,14.19
2022-11-01T05:36:45.103Z,13.64
2022-11-01T05:38:47.833Z,14.51
2022-11-01T05:40:50.981Z,14.44
2022-11-01T05:42:54.115Z,14.29
2022-11-01T05:44:57.006Z,14.25
2022-11-01T05:47:03.620Z,14.28
2022-11-01T05:49:06.348Z,14.00
2022-11-01T05:51:09.943Z,13.59
2022-11-01T05:53:13.109Z,11.67
2022-11-01T05:55:15.804Z,13.31
2022-11-01T05:57:18.620Z,13.89
2022-11-01T05:59:21.505Z,13.93
2022-11-01T06:01:24.222Z,13.99
2022-11-01T06:03:28.543Z,13.98
2022-11-01T06:05:31.738Z,14.07
2022-11-01T06:07:36.631Z,12.54
2022-11-01T06:09:39.347Z,14.27
2022-11-01T06:11:42.110Z,14.45
2022-11-01T06:13:44.798Z,14.53
2022-11-01T06:15:47.462Z,14.46
2022-11-01T06:17:55.596Z,14.42
2022-11-01T06:19:59.708Z,14.03
2022-11-01T06:22:02.473Z,14.46
2022-11-01T06:24:05.604Z,14.33
2022-11-01T06:26:08.340Z,13.76
2022-11-01T06:28:11.109Z,12.39
2022-11-01T06:30:13.950Z,14.40
2022-11-01T06:32:16.659Z,14.40
2022-11-01T06:34:19.365Z,14.31
2022-11-01T06:36:23.737Z,14.10
2022-11-01T06:38:26.598Z,14.09
2022-11-01T06:40:29.461Z,14.14
2022-11-01T06:42:32.146Z,14.11
2022-11-01T06:44:34.864Z,13.99
2022-11-01T06:46:37.805Z,14.06
2022-11-01T06:48:40.730Z,14.19
2022-11-01T06:50:43.412Z,12.64
2022-11-01T06:52:47.550Z,14.06
2022-11-01T06:54:50.284Z,14.09
2022-11-01T06:56:53.038Z,14.14
2022-11-01T06:58:55.905Z,14.28
2022-11-01T07:00:58.742Z,12.65
2022-11-01T07:03:04.518Z,14.05
2022-11-01T07:05:08.581Z,13.96
2022-11-01T07:07:11.237Z,14.14
2022-11-01T07:09:15.445Z,14.19
2022-11-01T07:11:18.272Z,14.32
2022-11-01T07:13:21.061Z,14.39
2022-11-01T07:15:23.799Z,14.42
2022-11-01T07:17:27.512Z,14.53
2022-11-01T07:19:30.231Z,14.20
2022-11-01T07:21:33.454Z,14.28
2022-11-01T07:23:36.404Z,13.17
2022-11-01T07:25:40.748Z,14.31
2022-11-01T07:27:43.608Z,14.31
2022-11-01T07:29:46.267Z,12.88
2022-11-01T07:31:50.126Z,12.51
2022-11-01T07:33:53.120Z,14.20
2022-11-01T07:35:55.867Z,14.20
2022-11-01T07:37:59.578Z,14.22
2022-11-01T07:40:03.241Z,14.53
2022-11-01T07:42:07.277Z,15.07
2022-11-01T07:44:10.071Z,15.25
2022-11-01T07:46:13.799Z,15.48
2022-11-01T07:48:17.825Z,15.89
2022-11-01T07:50:20.949Z,16.16
2022-11-01T07:52:23.722Z,16.68
2022-11-01T07:54:26.446Z,16.82
2022-11-01T07:56:29.143Z,16.45
2022-11-01T07:58:34.373Z,16.00
2022-11-01T08:00:37.872Z,13.36
2022-11-01T08:02:40.761Z,12.82
2022-11-01T08:04:43.836Z,15.36
2022-11-01T08:06:49.684Z,15.35
2022-11-01T08:08:54.782Z,15.45
2022-11-01T08:11:00.014Z,14.98
2022-11-01T08:13:05.227Z,14.08
2022-11-01T08:15:10.948Z,14.97
2022-11-01T08:17:13.756Z,14.48
2022-11-01T08:19:16.784Z,15.15
2022-11-01T08:21:19.665Z,15.10
2022-11-01T08:23:22.889Z,15.22
2022-11-01T08:25:26.193Z,15.22
2022-11-01T08:27:31.509Z,15.22
2022-11-01T08:29:37.294Z,15.22
2022-11-01T08:31:42.931Z,14.96
2022-11-01T08:33:45.733Z,15.09
2022-11-01T08:35:50.694Z,15.17
2022-11-01T08:37:54.624Z,15.15
2022-11-01T08:39:57.308Z,15.43
2022-11-01T08:42:00.741Z,15.34
2022-11-01T08:44:03.543Z,15.05
2022-11-01T08:46:06.426Z,15.10
2022-11-01T08:48:11.413Z,13.11
2022-11-01T08:50:16.141Z,13.79
2022-11-01T08:52:18.916Z,15.00
2022-11-01T08:54:21.792Z,14.97
2022-11-01T08:56:26.794Z,15.02
2022-11-01T08:58:29.581Z,14.88
2022-11-01T09:00:32.526Z,14.98
2022-11-01T09:02:35.850Z,14.99
2022-11-01T09:04:40.061Z,15.07
2022-11-01T09:06:42.854Z,15.18
2022-11-01T09:08:45.932Z,15.45
2022-11-01T09:10:48.678Z,15.73
2022-11-01T09:12:51.397Z,15.63
2022-11-01T09:14:54.124Z,15.46
2022-11-01T09:16:57.013Z,14.11
2022-11-01T09:19:01.740Z,15.51
2022-11-01T09:21:07.180Z,15.51
2022-11-01T09:23:10.284Z,15.47
2022-11-01T09:25:13.589Z,15.51
2022-11-01T09:27:16.531Z,15.38
2022-11-01T09:29:21.190Z,15.67
2022-11-01T09:31:24.385Z,15.91
2022-11-01T09:33:27.116Z,16.24
2022-11-01T09:35:29.905Z,16.05
2022-11-01T09:37:34.226Z,15.01
2022-11-01T09:39:36.994Z,16.24
2022-11-01T09:41:47.253Z,16.47
2022-11-01T09:43:53.101Z,16.54
2022-11-01T09:45:59.288Z,16.38
2022-11-01T09:48:04.645Z,15.42
2022-11-01T09:50:17.593Z,17.10
2022-11-01T09:52:23.328Z,17.24
2022-11-01T09:54:29.575Z,17.60
2022-11-01T09:56:39.658Z,17.89
2022-11-01T09:58:53.574Z,17.54
2022-11-01T10:01:07.839Z,17.59
2022-11-01T10:03:33.877Z,17.97
2022-11-01T10:05:48.836Z,18.19
2022-11-01T10:08:04.074Z,18.12
2022-11-01T10:10:29.029Z,18.08
2022-11-01T10:12:44.110Z,17.70
2022-11-01T10:14:59.689Z,17.39
2022-11-01T10:17:13.058Z,17.13
2022-11-01T10:19:18.726Z,17.22
2022-11-01T10:21:25.948Z,15.08
2022-11-01T10:23:44.150Z,15.24
2022-11-01T10:25:54.773Z,17.32
2022-11-01T10:28:06.115Z,17.61
2022-11-01T10:30:15.573Z,17.44
2022-11-01T10:32:28.131Z,17.62
2022-11-01T10:34:36.443Z,17.56
2022-11-01T10:36:44.890Z,17.61
2022-11-01T10:39:29.907Z,17.67
2022-11-01T10:41:32.057Z,17.36
2022-11-01T10:43:38.557Z,17.44
2022-11-01T10:45:47.468Z,17.43
2022-11-01T10:47:54.082Z,17.78
2022-11-01T10:50:08.270Z,18.20
2022-11-01T10:52:15.534Z,9.42
2022-11-01T10:54:22.191Z,18.06
2022-11-01T10:56:33.251Z,17.41
2022-11-01T10:58:41.547Z,16.25
2022-11-01T11:00:45.368Z,18.18
2022-11-01T11:02:50.846Z,18.20
2022-11-01T11:04:53.711Z,17.43
2022-11-01T11:06:56.902Z,18.55
2022-11-01T11:09:00.468Z,15.32
2022-11-01T11:11:08.497Z,18.48
2022-11-01T11:13:15.972Z,18.65
2022-11-01T11:15:22.977Z,18.67
2022-11-01T11:17:30.815Z,18.67
2022-11-01T11:19:35.838Z,16.01
2022-11-01T11:21:38.831Z,17.79
2022-11-01T11:23:44.746Z,18.16
2022-11-01T11:25:47.517Z,18.34
2022-11-01T11:27:54.188Z,17.44
2022-11-01T11:30:00.761Z,18.00
2022-11-01T11:32:05.298Z,18.36
2022-11-01T11:34:29.197Z,18.41
2022-11-01T11:36:35.251Z,18.48
2022-11-01T11:38:42.580Z,18.37
2022-11-01T11:40:46.708Z,16.86
2022-11-01T11:42:50.008Z,18.15
2022-11-01T11:44:56.731Z,17.84
2022-11-01T11:47:03.191Z,18.61
2022-11-01T11:49:07.361Z,18.83
2022-11-01T11:51:12.091Z,18.65
2022-11-01T11:53:19.116Z,18.46
2022-11-01T11:55:31.176Z,17.43
2022-11-01T11:57:34.358Z,17.68
2022-11-01T11:59:37.224Z,17.67
2022-11-01T12:01:40.209Z,16.99
2022-11-01T12:03:50.675Z,15.66
2022-11-01T12:06:00.930Z,17.64
2022-11-01T12:08:04.134Z,18.15
2022-11-01T12:10:28.514Z,18.38
2022-11-01T12:12:33.088Z,18.41
2022-11-01T12:14:39.221Z,18.47
2022-11-01T12:16:43.348Z,16.42
2022-11-01T12:18:53.282Z,18.07
2022-11-01T12:20:55.990Z,17.76
2022-11-01T12:23:07.030Z,17.99
2022-11-01T12:25:15.116Z,19.45
2022-11-01T12:27:21.970Z,17.91
2022-11-01T12:29:30.517Z,19.59
2022-11-01T12:31:33.444Z,18.47
2022-11-01T12:33:41.992Z,20.80
2022-11-01T12:35:48.673Z,20.46
2022-11-01T12:38:01.490Z,21.13
2022-11-01T12:40:14.240Z,21.03
2022-11-01T12:42:25.290Z,21.37
2022-11-01T12:44:34.254Z,20.63
2022-11-01T12:46:44.177Z,21.18
2022-11-01T12:48:55.126Z,20.31
2022-11-01T12:51:03.855Z,20.91
2022-11-01T12:53:12.887Z,20.92
2022-11-01T12:55:21.557Z,21.94
2022-11-01T12:57:24.313Z,21.71
2022-11-01T12:59:33.628Z,20.77
2022-11-01T13:01:41.341Z,21.58
2022-11-01T13:03:51.694Z,21.06
2022-11-01T13:06:00.060Z,20.29
2022-11-01T13:08:14.824Z,20.97
2022-11-01T13:10:27.314Z,19.29
2022-11-01T13:12:38.990Z,19.82
2022-11-01T13:14:53.568Z,20.58
2022-11-01T13:17:06.385Z,19.77
2022-11-01T13:19:17.803Z,19.16
2022-11-01T13:21:31.665Z,19.98
2022-11-01T13:23:39.142Z,20.61
2022-11-01T13:25:45.733Z,21.37
2022-11-01T13:27:55.680Z,21.10
2022-11-01T13:30:03.150Z,20.19
2022-11-01T13:32:13.440Z,21.15
2022-11-01T13:34:41.194Z,21.30
2022-11-01T13:36:51.409Z,19.86
2022-11-01T13:39:03.156Z,19.19
2022-11-01T13:41:19.478Z,19.99
2022-11-01T13:43:25.696Z,19.70
2022-11-01T13:45:51.352Z,20.14
2022-11-01T13:48:04.948Z,20.74
2022-11-01T13:50:33.323Z,21.01
2022-11-01T13:52:42.103Z,21.02
2022-11-01T13:54:52.709Z,21.22
2022-11-01T13:56:59.807Z,21.75
2022-11-01T13:59:03.301Z,21.15
2022-11-01T14:01:35.361Z,21.07
2022-11-01T14:03:38.407Z,21.33
2022-11-01T14:05:41.439Z,20.89
2022-11-01T14:08:15.902Z,21.43
2022-11-01T14:10:48.539Z,21.28
2022-11-01T14:13:15.750Z,20.88
2022-11-01T14:15:24.931Z,20.25
2022-11-01T14:17:56.122Z,19.36
2022-11-01T14:20:32.181Z,20.83
2022-11-01T14:22:36.002Z,21.08
2022-11-01T14:24:54.234Z,20.92
2022-11-01T14:27:35.078Z,20.14
2022-11-01T14:29:37.985Z,20.03
2022-11-01T14:31:43.872Z,18.52
2022-11-01T14:33:48.504Z,17.83
2022-11-01T14:35:55.067Z,19.65
2022-11-01T14:38:02.877Z,19.54
2022-11-01T14:40:24.461Z,19.11
2022-11-01T14:42:36.203Z,19.56
2022-11-01T14:44:44.472Z,17.91
2022-11-01T14:46:53.722Z,18.71
2022-11-01T14:49:01.419Z,19.42
2022-11-01T14:51:11.612Z,19.24
2022-11-01T14:53:23.562Z,19.47
2022-11-01T14:55:32.198Z,20.02
2022-11-01T14:57:36.446Z,19.55
2022-11-01T14:59:39.111Z,19.94
2022-11-01T15:01:45.684Z,17.75
2022-11-01T15:03:55.750Z,19.39
2022-11-01T15:05:58.428Z,18.93
2022-11-01T15:08:01.339Z,18.50
2022-11-01T15:10:07.082Z,18.09
2022-11-01T15:12:11.380Z,16.89
2022-11-01T15:14:24.547Z,16.68
2022-11-01T15:16:28.782Z,16.57
2022-11-01T15:18:32.616Z,16.70
2022-11-01T15:20:39.815Z,17.28
2022-11-01T15:22:43.523Z,17.32
2022-11-01T15:24:47.772Z,17.34
2022-11-01T15:26:51.107Z,17.18
2022-11-01T15:28:56.915Z,17.55
2022-11-01T15:31:06.209Z,17.11
2022-11-01T15:33:16.587Z,17.36
2022-11-01T15:35:24.238Z,16.93
2022-11-01T15:37:30.591Z,16.77
2022-11-01T15:39:38.049Z,16.66
2022-11-01T15:41:40.769Z,15.99
2022-11-01T15:43:51.798Z,15.57
2022-11-01T15:45:56.980Z,16.48
2022-11-01T15:48:07.747Z,16.90
2022-11-01T15:50:11.434Z,15.75
2022-11-01T15:52:18.990Z,16.56
2022-11-01T15:54:32.833Z,16.29
2022-11-01T15:56:43.616Z,16.42
2022-11-01T15:58:52.449Z,16.40
2022-11-01T16:01:00.342Z,16.44
2022-11-01T16:03:07.857Z,15.86
2022-11-01T16:05:13.171Z,15.25
2022-11-01T16:07:19.753Z,16.21
2022-11-01T16:09:37.337Z,15.48
2022-11-01T16:11:40.884Z,14.77
2022-11-01T16:13:49.244Z,15.61
2022-11-01T16:16:03.080Z,16.01
2022-11-01T16:18:18.183Z,16.00
2022-11-01T16:20:38.694Z,15.01
2022-11-01T16:22:47.838Z,15.60
2022-11-01T16:24:50.616Z,15.29
2022-11-01T16:26:54.723Z,15.79
2022-11-01T16:28:57.405Z,15.52
2022-11-01T16:31:01.470Z,14.40
2022-11-01T16:33:28.806Z,15.49
2022-11-01T16:35:34.115Z,14.46
2022-11-01T16:37:39.316Z,15.16
2022-11-01T16:39:41.986Z,15.00
2022-11-01T16:41:44.707Z,15.17
2022-11-01T16:43:48.373Z,15.05
2022-11-01T16:45:51.176Z,15.07
2022-11-01T16:47:58.329Z,14.35
2022-11-01T16:50:02.775Z,15.17
2022-11-01T16:52:12.382Z,14.22
2022-11-01T16:54:15.286Z,14.69
2022-11-01T16:56:37.322Z,14.35
2022-11-01T16:58:40.656Z,13.68
2022-11-01T17:00:46.510Z,14.50
2022-11-01T17:02:49.619Z,13.38
2022-11-01T17:04:55.878Z,14.32
2022-11-01T17:06:59.914Z,14.13
2022-11-01T17:09:02.582Z,14.53
2022-11-01T17:11:05.278Z,14.67
2022-11-01T17:13:09.121Z,14.67
2022-11-01T17:15:13.327Z,13.15
2022-11-01T17:17:19.697Z,14.65
2022-11-01T17:19:27.228Z,14.55
2022-11-01T17:21:33.394Z,14.53
2022-11-01T17:23:38.186Z,14.46
2022-11-01T17:25:41.449Z,13.16
2022-11-01T17:27:45.789Z,13.88
2022-11-01T17:29:48.748Z,14.21
2022-11-01T17:31:51.397Z,14.22
2022-11-01T17:33:54.044Z,14.08
2022-11-01T17:35:56.928Z,13.94
2022-11-01T17:37:59.737Z,13.92
2022-11-01T17:40:05.121Z,13.92
2022-11-01T17:42:07.937Z,10.47
2022-11-01T17:44:11.412Z,13.50
2022-11-01T17:46:16.305Z,13.60
2022-11-01T17:48:19.775Z,13.57
2022-11-01T17:50:22.617Z,13.15
2022-11-01T17:52:25.310Z,12.93
2022-11-01T17:54:27.984Z,12.89
2022-11-01T17:56:32.444Z,12.87
2022-11-01T17:58:35.593Z,12.78
2022-11-01T18:00:41.612Z,10.42
2022-11-01T18:02:44.558Z,12.67
2022-11-01T18:04:47.313Z,12.77
2022-11-01T18:06:50.457Z,12.76
2022-11-01T18:08:53.983Z,11.80
2022-11-01T18:11:04.374Z,12.76
2022-11-01T18:13:42.230Z,12.62
2022-11-01T18:15:53.391Z,11.44
2022-11-01T18:18:17.522Z,11.07
2022-11-01T18:20:33.790Z,12.65
2022-11-01T18:22:45.130Z,12.61
2022-11-01T18:24:51.282Z,11.63
2022-11-01T18:26:54.169Z,12.51
2022-11-01T18:29:07.217Z,12.48
2022-11-01T18:31:16.297Z,10.96
2022-11-01T18:33:22.978Z,12.56
2022-11-01T18:35:32.386Z,12.56
2022-11-01T18:37:43.390Z,12.54
2022-11-01T18:39:52.390Z,9.91
2022-11-01T18:41:55.479Z,12.39
2022-11-01T18:44:00.581Z,12.43
2022-11-01T18:46:23.880Z,8.78
2022-11-01T18:48:28.513Z,11.68
2022-11-01T18:50:31.512Z,11.61
2022-11-01T18:52:34.489Z,12.27
2022-11-01T18:54:44.070Z,12.43
2022-11-01T18:56:50.665Z,12.36
2022-11-01T18:58:54.942Z,12.41
2022-11-01T19:01:02.835Z,11.08
2022-11-01T19:03:11.851Z,12.49
2022-11-01T19:05:18.260Z,12.57
2022-11-01T19:07:22.888Z,12.58
2022-11-01T19:09:28.610Z,12.38
2022-11-01T19:11:32.724Z,12.09
2022-11-01T19:13:35.845Z,12.23
2022-11-01T19:15:38.634Z,9.69
2022-11-01T19:17:44.949Z,12.13
2022-11-01T19:19:48.242Z,12.25
2022-11-01T19:21:50.997Z,12.40
2022-11-01T19:23:56.267Z,11.00
2022-11-01T19:25:59.211Z,8.74
2022-11-01T19:28:04.937Z,11.76
2022-11-01T19:30:21.733Z,12.12
2022-11-01T19:32:26.084Z,12.11
2022-11-01T19:34:34.842Z,10.56
2022-11-01T19:38:45.124Z,11.88
2022-11-01T19:40:51.438Z,11.32
2022-11-01T19:42:54.808Z,12.21
2022-11-01T19:45:00.770Z,11.93
2022-11-01T19:47:27.002Z,11.68
2022-11-01T19:49:31.133Z,11.86
2022-11-01T19:51:33.917Z,11.58
2022-11-01T19:53:40.069Z,9.64
2022-11-01T19:55:47.841Z,12.38
2022-11-01T19:57:51.253Z,12.30
2022-11-01T19:59:54.642Z,11.82
2022-11-01T20:01:57.748Z,12.10
2022-11-01T20:04:02.435Z,12.02
2022-11-01T20:06:12.334Z,11.91
2022-11-01T20:08:21.332Z,9.75
2022-11-01T20:10:24.820Z,12.08
2022-11-01T20:12:27.550Z,12.10
2022-11-01T20:14:30.391Z,11.37
2022-11-01T20:16:33.196Z,11.86
2022-11-01T20:18:35.995Z,11.73
2022-11-01T20:20:43.891Z,11.05
2022-11-01T20:22:54.838Z,11.89
2022-11-01T20:25:09.746Z,9.94
2022-11-01T20:27:12.440Z,10.76
2022-11-01T20:29:15.473Z,11.86
2022-11-01T20:31:18.721Z,11.83
2022-11-01T20:33:21.455Z,11.80
2022-11-01T20:35:24.169Z,11.76
2022-11-01T20:37:28.758Z,11.76
2022-11-01T20:39:33.109Z,11.65
2022-11-01T20:41:35.750Z,10.59
2022-11-01T20:43:38.429Z,11.58
2022-11-01T20:45:49.278Z,11.55
2022-11-01T20:47:55.281Z,11.57
2022-11-01T20:49:58.025Z,11.51
2022-11-01T20:52:26.010Z,10.29
2022-11-01T20:54:23.711Z,4.23
2022-11-01T20:56:27.983Z,11.39
2022-11-01T20:58:30.824Z,11.36
2022-11-01T21:00:33.600Z,8.56
2022-11-01T21:02:36.452Z,11.21
2022-11-01T21:04:39.869Z,11.24
2022-11-01T21:06:43.565Z,11.19
2022-11-01T21:08:47.997Z,11.12
2022-11-01T21:10:56.476Z,9.43
2022-11-01T21:13:02.243Z,11.06
2022-11-01T21:15:30.207Z,11.05
2022-11-01T21:17:33.343Z,10.15
2022-11-01T21:19:36.176Z,10.95
2022-11-01T21:21:46.235Z,10.82
2022-11-01T21:23:49.610Z,10.00
2022-11-01T21:25:54.386Z,10.58
2022-11-01T21:27:57.137Z,9.35
2022-11-01T21:30:15.878Z,10.14
2022-11-01T21:32:26.945Z,8.55
2022-11-01T21:34:31.746Z,9.77
2022-11-01T21:36:36.158Z,9.11
2022-11-01T21:38:42.062Z,10.51
2022-11-01T21:40:44.869Z,8.16
2022-11-01T21:42:47.570Z,9.30
2022-11-01T21:44:50.565Z,9.85
2022-11-01T21:46:56.403Z,9.26
2022-11-01T21:49:00.352Z,10.40
2022-11-01T21:51:03.076Z,9.50
2022-11-01T21:53:06.116Z,10.41
2022-11-01T21:55:09.408Z,10.40
2022-11-01T21:57:13.019Z,10.42
2022-11-01T21:59:15.720Z,9.12
2022-11-01T22:01:18.449Z,10.41
2022-11-01T22:03:22.807Z,10.39
2022-11-01T22:05:25.552Z,10.39
2022-11-01T22:07:28.272Z,10.36
2022-11-01T22:09:31.780Z,7.75
2022-11-01T22:11:34.625Z,10.21
2022-11-01T22:13:37.369Z,10.14
2022-11-01T22:15:40.059Z,10.09
2022-11-01T22:17:42.764Z,9.96
2022-11-01T22:19:46.806Z,9.99
2022-11-01T22:21:49.596Z,9.99
2022-11-01T22:23:52.495Z,9.87
2022-11-01T22:25:56.148Z,8.31
2022-11-01T22:27:58.839Z,9.94
2022-11-01T22:30:01.509Z,9.92
2022-11-01T22:32:04.471Z,9.93
2022-11-01T22:34:07.180Z,10.04
2022-11-01T22:36:19.119Z,10.07
2022-11-01T22:38:24.128Z,2.45
2022-11-01T22:40:26.939Z,9.28
2022-11-01T22:42:29.589Z,10.15
2022-11-01T22:44:33.321Z,10.18
2022-11-01T22:46:44.614Z,10.18
2022-11-01T22:48:48.273Z,9.87
2022-11-01T22:50:51.214Z,10.06
2022-11-01T22:52:55.240Z,8.52
2022-11-01T22:55:04.651Z,8.35
2022-11-01T22:57:15.811Z,10.09
2022-11-01T22:59:18.627Z,9.94
2022-11-01T23:01:27.701Z,9.95
2022-11-01T23:03:37.721Z,9.97
2022-11-01T23:05:42.278Z,9.95
2022-11-01T23:07:47.324Z,9.90
2022-11-01T23:09:53.732Z,9.87
2022-11-01T23:12:15.511Z,9.87
2022-11-01T23:14:37.933Z,9.92
2022-11-01T23:16:44.994Z,9.85
2022-11-01T23:18:48.201Z,9.89
2022-11-01T23:20:56.156Z,9.88
2022-11-01T23:23:00.647Z,9.90
2022-11-01T23:25:05.873Z,8.53
2022-11-01T23:27:08.698Z,9.93
2022-11-01T23:29:11.504Z,8.77
2022-11-01T23:31:14.650Z,9.97
2022-11-01T23:33:19.543Z,9.99
2022-11-01T23:35:23.084Z,9.97
2022-11-01T23:37:26.898Z,10.00
2022-11-01T23:39:34.429Z,9.61
2022-11-01T23:41:40.789Z,4.78
2022-11-01T23:43:43.429Z,10.10
2022-11-01T23:45:46.288Z,8.36
2022-11-01T23:47:49.825Z,10.07
2022-11-01T23:50:01.062Z,8.81
2022-11-01T23:52:20.384Z,9.28
2022-11-01T23:54:27.708Z,10.03
2022-11-01T23:56:31.603Z,10.00
2022-11-01T23:58:37.138Z,9.96
